createdAt,value
2019-01-06T00:01:16.068Z,4.87
2019-01-06T00:04:21.293Z,4.40
2019-01-06T00:07:11.122Z,4.70
2019-01-06T00:09:59.519Z,5.07
2019-01-06T00:12:47.736Z,5.13
2019-01-06T00:15:37.667Z,5.23
2019-01-06T00:18:33.569Z,4.77
2019-01-06T00:21:26.191Z,4.80
2019-01-06T00:24:34.475Z,4.43
2019-01-06T00:27:27.190Z,4.73
2019-01-06T00:30:15.656Z,4.67
2019-01-06T00:32:58.713Z,4.30
2019-01-06T00:35:54.413Z,5.10
2019-01-06T00:38:44.250Z,4.70
2019-01-06T00:41:40.949Z,5.00
2019-01-06T00:44:48.836Z,4.27
2019-01-06T00:47:37.361Z,4.50
2019-01-06T00:50:23.797Z,4.27
2019-01-06T00:53:28.681Z,4.43
2019-01-06T00:56:17.168Z,4.10
2019-01-06T00:59:09.082Z,3.90
2019-01-06T01:02:04.807Z,4.77
2019-01-06T01:05:07.044Z,4.50
2019-01-06T01:07:59.933Z,3.83
2019-01-06T01:10:48.327Z,4.27
2019-01-06T01:13:36.775Z,3.70
2019-01-06T01:16:25.215Z,3.97
2019-01-06T01:19:13.807Z,3.97
2019-01-06T01:22:09.643Z,4.10
2019-01-06T01:24:58.219Z,3.67
2019-01-06T01:27:48.102Z,3.97
2019-01-06T01:30:40.955Z,3.83
2019-01-06T01:33:42.844Z,3.80
2019-01-06T01:36:25.906Z,3.90
2019-01-06T01:39:15.822Z,3.50
2019-01-06T01:42:11.635Z,4.20
2019-01-06T01:45:01.509Z,3.93
2019-01-06T01:47:57.454Z,3.70
2019-01-06T01:50:46.194Z,3.93
2019-01-06T01:53:37.293Z,3.93
2019-01-06T01:56:33.219Z,3.57
2019-01-06T01:59:21.704Z,3.70
2019-01-06T02:02:21.087Z,3.80
2019-01-06T02:05:28.970Z,3.77
2019-01-06T02:08:25.804Z,3.90
2019-01-06T02:11:08.420Z,3.60
2019-01-06T02:13:57.272Z,3.27
2019-01-06T02:16:46.132Z,3.77
2019-01-06T02:19:36.641Z,3.80
2019-01-06T02:22:23.540Z,3.83
2019-01-06T02:25:12.123Z,3.70
2019-01-06T02:28:08.128Z,3.73
2019-01-06T02:30:52.096Z,4.53
2019-01-06T02:33:37.301Z,3.33
2019-01-06T02:36:26.167Z,3.83
2019-01-06T02:39:14.640Z,3.57
2019-01-06T02:42:06.417Z,3.20
2019-01-06T02:45:08.270Z,2.87
2019-01-06T02:47:56.866Z,3.10
2019-01-06T02:50:57.653Z,3.53
2019-01-06T02:53:52.309Z,2.73
2019-01-06T02:56:40.864Z,3.33
2019-01-06T02:59:29.600Z,3.57
2019-01-06T03:02:19.434Z,3.20
2019-01-06T03:04:58.224Z,2.93
2019-01-06T03:07:48.040Z,3.00
2019-01-06T03:10:50.162Z,3.27
2019-01-06T03:13:31.462Z,3.00
2019-01-06T03:16:24.496Z,3.33
2019-01-06T03:19:14.481Z,2.77
2019-01-06T03:22:03.754Z,2.93
2019-01-06T03:24:47.494Z,3.30
2019-01-06T03:27:55.761Z,2.97
2019-01-06T03:30:48.630Z,2.87
2019-01-06T03:33:37.418Z,3.07
2019-01-06T03:36:29.041Z,2.97
2019-01-06T03:39:22.092Z,3.07
2019-01-06T03:42:17.515Z,2.43
2019-01-06T03:45:19.549Z,3.17
2019-01-06T03:48:21.813Z,2.60
2019-01-06T03:51:14.654Z,2.60
2019-01-06T03:54:05.312Z,1.90
2019-01-06T03:56:53.677Z,2.43
2019-01-06T03:59:49.642Z,2.50
2019-01-06T04:02:39.509Z,2.60
2019-01-06T04:05:29.354Z,2.53
2019-01-06T04:08:28.278Z,2.33
2019-01-06T04:11:15.376Z,2.57
2019-01-06T04:14:13.518Z,1.90
2019-01-06T04:17:18.521Z,2.27
2019-01-06T04:20:14.145Z,2.63
2019-01-06T04:23:02.980Z,2.00
2019-01-06T04:25:51.282Z,2.00
2019-01-06T04:28:41.141Z,2.10
2019-01-06T04:31:34.154Z,2.00
2019-01-06T04:34:22.875Z,1.80
2019-01-06T04:37:11.638Z,1.83
2019-01-06T04:40:06.514Z,1.87
2019-01-06T04:42:54.903Z,1.70
2019-01-06T04:45:44.731Z,1.60
2019-01-06T04:48:27.645Z,1.70
2019-01-06T04:51:17.930Z,2.07
2019-01-06T04:54:13.702Z,1.97
2019-01-06T04:57:02.375Z,2.20
2019-01-06T04:59:51.942Z,1.80
2019-01-06T05:02:49.035Z,2.37
2019-01-06T05:05:54.223Z,2.20
2019-01-06T05:08:46.894Z,1.60
2019-01-06T05:11:33.366Z,2.03
2019-01-06T05:14:29.516Z,1.73
2019-01-06T05:17:19.281Z,2.27
2019-01-06T05:20:15.342Z,2.03
2019-01-06T05:23:20.844Z,2.07
2019-01-06T05:26:25.977Z,1.97
2019-01-06T05:29:14.803Z,2.30
2019-01-06T05:32:03.533Z,1.90
2019-01-06T05:34:52.207Z,2.20
2019-01-06T05:37:48.079Z,1.70
2019-01-06T05:40:42.866Z,1.87
2019-01-06T05:43:31.876Z,1.90
2019-01-06T05:46:21.918Z,2.03
2019-01-06T05:49:14.821Z,1.93
2019-01-06T05:52:16.966Z,2.10
2019-01-06T05:55:12.866Z,2.30
2019-01-06T05:58:01.629Z,2.53
2019-01-06T06:01:09.550Z,2.50
2019-01-06T06:04:08.035Z,2.77
2019-01-06T06:06:56.758Z,3.03
2019-01-06T06:09:52.485Z,2.30
2019-01-06T06:12:54.396Z,2.47
2019-01-06T06:15:59.333Z,2.93
2019-01-06T06:18:58.074Z,2.40
2019-01-06T06:21:46.872Z,4.60
2019-01-06T06:24:35.250Z,3.03
2019-01-06T06:27:24.092Z,2.30
2019-01-06T06:30:14.778Z,2.80
2019-01-06T06:33:23.131Z,2.83
2019-01-06T06:36:11.696Z,2.57
2019-01-06T06:39:00.452Z,2.70
2019-01-06T06:41:48.552Z,2.50
2019-01-06T06:44:50.765Z,2.57
2019-01-06T06:47:43.393Z,2.63
2019-01-06T06:50:36.764Z,2.80
2019-01-06T06:53:37.924Z,2.67
2019-01-06T06:56:26.891Z,2.67
2019-01-06T06:59:32.107Z,2.37
2019-01-06T07:03:10.131Z,2.20
2019-01-06T07:06:06.583Z,2.50
2019-01-06T07:08:57.334Z,2.40
2019-01-06T07:11:49.938Z,2.87
2019-01-06T07:14:32.885Z,2.27
2019-01-06T07:18:08.941Z,2.40
2019-01-06T07:21:02.927Z,2.10
2019-01-06T07:23:55.849Z,2.80
2019-01-06T07:26:49.523Z,3.10
2019-01-06T07:29:37.935Z,3.33
2019-01-06T07:32:24.510Z,3.23
2019-01-06T07:35:13.098Z,3.77
2019-01-06T07:38:21.375Z,2.57
2019-01-06T07:41:09.099Z,2.60
2019-01-06T07:44:12.078Z,3.37
2019-01-06T07:47:00.583Z,2.80
2019-01-06T07:49:49.125Z,3.00
2019-01-06T07:52:39.009Z,2.70
2019-01-06T07:55:27.747Z,2.90
2019-01-06T07:58:09.718Z,3.10
2019-01-06T08:00:58.119Z,2.87
2019-01-06T08:03:49.081Z,3.00
2019-01-06T08:06:37.770Z,3.33
2019-01-06T08:09:25.300Z,2.80
2019-01-06T08:12:13.093Z,5.60
2019-01-06T08:15:01.492Z,2.90
2019-01-06T08:18:09.746Z,2.60
2019-01-06T08:21:05.817Z,3.63
2019-01-06T08:23:54.225Z,2.43
2019-01-06T08:26:42.969Z,2.90
2019-01-06T08:29:44.861Z,3.00
2019-01-06T08:32:49.844Z,3.43
2019-01-06T08:35:38.444Z,4.63
2019-01-06T08:38:34.494Z,3.10
2019-01-06T08:41:24.387Z,2.47
2019-01-06T08:44:12.861Z,3.43
2019-01-06T08:47:05.753Z,5.63
2019-01-06T08:49:54.475Z,6.57
2019-01-06T08:52:45.015Z,3.40
2019-01-06T08:55:50.028Z,6.67
2019-01-06T08:58:45.913Z,5.70
2019-01-06T09:01:34.405Z,47.57
2019-01-06T09:04:23.093Z,19.10
2019-01-06T09:07:11.688Z,9.17
2019-01-06T09:09:59.442Z,7.13
2019-01-06T09:12:48.392Z,10.07
2019-01-06T09:15:44.029Z,3.60
2019-01-06T09:18:48.951Z,3.70
2019-01-06T09:21:37.311Z,8.30
2019-01-06T09:24:31.318Z,20.90
2019-01-06T09:27:22.377Z,11.03
2019-01-06T09:30:11.216Z,8.33
2019-01-06T09:33:13.612Z,8.23
2019-01-06T09:36:10.899Z,3.60
2019-01-06T09:39:07.980Z,3.70
2019-01-06T09:42:03.775Z,4.57
2019-01-06T09:44:52.696Z,4.03
2019-01-06T09:48:01.009Z,4.60
2019-01-06T09:50:54.016Z,4.67
2019-01-06T09:53:42.863Z,4.40
2019-01-06T09:56:31.541Z,5.30
2019-01-06T09:59:21.412Z,5.10
2019-01-06T10:02:17.130Z,7.63
2019-01-06T10:05:06.989Z,5.60
2019-01-06T10:08:06.960Z,6.67
2019-01-06T10:11:00.126Z,5.80
2019-01-06T10:13:48.871Z,7.90
2019-01-06T10:16:38.083Z,8.00
2019-01-06T10:19:43.143Z,7.83
2019-01-06T10:22:26.318Z,6.90
2019-01-06T10:25:14.834Z,5.40
2019-01-06T10:28:19.826Z,10.43
2019-01-06T10:31:22.162Z,6.00
2019-01-06T10:34:15.085Z,6.07
2019-01-06T10:37:03.571Z,8.53
2019-01-06T10:39:53.455Z,5.83
2019-01-06T10:42:58.630Z,9.27
2019-01-06T10:46:03.509Z,9.23
2019-01-06T10:48:52.446Z,6.60
2019-01-06T10:51:40.591Z,6.07
2019-01-06T10:54:39.318Z,11.17
2019-01-06T10:57:44.368Z,7.50
2019-01-06T11:00:43.033Z,6.53
2019-01-06T11:03:47.967Z,8.27
2019-01-06T11:06:40.601Z,5.47
2019-01-06T11:09:42.873Z,5.37
2019-01-06T11:12:31.351Z,7.20
2019-01-06T11:15:27.273Z,7.00
2019-01-06T11:18:15.879Z,7.57
2019-01-06T11:20:57.838Z,7.70
2019-01-06T11:23:57.025Z,6.60
2019-01-06T11:26:59.193Z,9.80
2019-01-06T11:29:49.116Z,8.70
2019-01-06T11:32:37.686Z,9.00
2019-01-06T11:35:26.212Z,8.30
2019-01-06T11:38:14.640Z,8.33
2019-01-06T11:41:10.578Z,6.90
2019-01-06T11:43:59.139Z,9.27
2019-01-06T11:47:16.367Z,8.57
2019-01-06T11:50:12.280Z,7.50
2019-01-06T11:53:02.157Z,8.77
2019-01-06T11:56:07.430Z,8.57
2019-01-06T11:58:57.138Z,8.13
2019-01-06T12:01:48.258Z,8.57
2019-01-06T12:04:36.872Z,8.00
2019-01-06T12:07:25.603Z,9.27
2019-01-06T12:10:14.633Z,8.70
2019-01-06T12:13:00.921Z,8.27
2019-01-06T12:16:09.041Z,8.73
2019-01-06T12:18:57.562Z,7.63
2019-01-06T12:21:45.999Z,9.20
2019-01-06T12:24:34.880Z,9.80
2019-01-06T12:27:30.856Z,8.23
2019-01-06T12:30:23.476Z,7.10
2019-01-06T12:33:22.223Z,14.97
2019-01-06T12:36:17.853Z,7.40
2019-01-06T12:39:07.745Z,6.87
2019-01-06T12:42:13.019Z,8.03
2019-01-06T12:45:11.932Z,8.93
2019-01-06T12:48:17.211Z,8.00
2019-01-06T12:51:19.453Z,9.33
2019-01-06T12:54:08.278Z,7.50
2019-01-06T12:56:56.747Z,7.80
2019-01-06T12:59:58.718Z,7.00
2019-01-06T13:02:47.139Z,6.93
2019-01-06T13:05:46.016Z,7.70
2019-01-06T13:08:48.285Z,6.93
2019-01-06T13:11:50.424Z,7.83
2019-01-06T13:14:37.142Z,8.47
2019-01-06T13:17:21.919Z,7.83
2019-01-06T13:20:10.742Z,8.20
2019-01-06T13:23:19.023Z,6.33
2019-01-06T13:26:08.915Z,8.93
2019-01-06T13:29:14.073Z,8.67
2019-01-06T13:32:12.664Z,16.43
2019-01-06T13:35:01.441Z,23.03
2019-01-06T13:37:50.485Z,25.20
2019-01-06T13:40:39.100Z,25.60
2019-01-06T13:43:35.100Z,14.27
2019-01-06T13:46:40.396Z,19.53
2019-01-06T13:49:28.502Z,36.93
2019-01-06T13:52:27.475Z,32.57
2019-01-06T13:55:17.349Z,24.63
2019-01-06T13:58:00.460Z,23.00
2019-01-06T14:00:43.063Z,27.10
2019-01-06T14:03:39.717Z,31.10
2019-01-06T14:06:28.263Z,29.60
2019-01-06T14:09:36.595Z,32.30
2019-01-06T14:12:35.283Z,33.37
2019-01-06T14:15:24.052Z,35.80
2019-01-06T14:18:12.625Z,45.87
2019-01-06T14:21:11.653Z,28.40
2019-01-06T14:24:01.518Z,30.80
2019-01-06T14:26:50.010Z,31.67
2019-01-06T14:29:34.397Z,39.87
2019-01-06T14:32:36.378Z,36.60
2019-01-06T14:35:29.243Z,35.33
2019-01-06T14:38:19.142Z,46.23
2019-01-06T14:41:24.508Z,41.33
2019-01-06T14:44:26.780Z,42.20
2019-01-06T14:47:15.507Z,38.37
2019-01-06T14:50:04.305Z,34.83
2019-01-06T14:52:57.010Z,32.40
2019-01-06T14:55:58.911Z,37.83
2019-01-06T14:58:48.865Z,38.20
2019-01-06T15:01:46.855Z,33.23
2019-01-06T15:04:35.416Z,30.47
2019-01-06T15:07:24.204Z,44.17
2019-01-06T15:10:12.759Z,47.60
2019-01-06T15:13:00.222Z,50.90
2019-01-06T15:16:05.548Z,56.63
2019-01-06T15:19:07.857Z,53.03
2019-01-06T15:22:16.201Z,49.77
2019-01-06T15:25:04.659Z,49.17
2019-01-06T15:28:00.640Z,48.07
2019-01-06T15:30:55.547Z,42.30
2019-01-06T15:33:43.447Z,33.97
2019-01-06T15:36:33.469Z,35.70
2019-01-06T15:39:26.799Z,42.20
2019-01-06T15:42:22.625Z,42.57
2019-01-06T15:45:12.566Z,41.23
2019-01-06T15:48:12.449Z,44.23
2019-01-06T15:51:02.323Z,47.17
2019-01-06T15:53:51.103Z,41.47
2019-01-06T15:56:44.072Z,39.57
2019-01-06T15:59:49.200Z,41.53
2019-01-06T16:02:44.903Z,47.13
2019-01-06T16:05:54.316Z,54.03
2019-01-06T16:08:54.650Z,64.70
2019-01-06T16:11:52.016Z,55.47
2019-01-06T16:14:55.041Z,56.13
2019-01-06T16:17:47.705Z,59.33
2019-01-06T16:20:30.659Z,60.27
2019-01-06T16:23:38.731Z,59.00
2019-01-06T16:26:34.877Z,54.67
2019-01-06T16:29:27.575Z,44.83
2019-01-06T16:32:26.265Z,41.13
2019-01-06T16:35:14.988Z,38.43
2019-01-06T16:38:03.745Z,38.00
2019-01-06T16:40:47.077Z,37.90
2019-01-06T16:43:31.267Z,39.53
2019-01-06T16:46:19.720Z,37.20
2019-01-06T16:49:08.565Z,32.63
2019-01-06T16:52:01.562Z,28.77
2019-01-06T16:55:04.467Z,25.03
2019-01-06T16:57:53.238Z,22.63
2019-01-06T17:00:43.081Z,21.13
2019-01-06T17:03:43.667Z,23.00
2019-01-06T17:06:43.932Z,25.63
2019-01-06T17:09:32.681Z,28.17
2019-01-06T17:12:20.738Z,32.37
2019-01-06T17:15:10.680Z,35.23
2019-01-06T17:18:09.946Z,36.00
2019-01-06T17:20:58.508Z,41.90
2019-01-06T17:23:51.441Z,49.87
2019-01-06T17:26:50.565Z,65.53
2019-01-06T17:29:40.433Z,100.03
2019-01-06T17:32:29.066Z,129.87
2019-01-06T17:35:15.178Z,119.90
2019-01-06T17:38:03.979Z,109.63
2019-01-06T17:40:52.819Z,96.90
2019-01-06T17:43:48.845Z,91.27
2019-01-06T17:46:56.994Z,55.30
2019-01-06T17:50:04.956Z,48.53
2019-01-06T17:52:53.352Z,58.63
2019-01-06T17:56:01.249Z,76.27
2019-01-06T17:58:51.102Z,71.43
2019-01-06T18:01:43.792Z,64.03
2019-01-06T18:04:32.374Z,57.07
2019-01-06T18:07:25.045Z,45.57
2019-01-06T18:10:22.076Z,47.50
2019-01-06T18:13:13.371Z,50.00
2019-01-06T18:16:22.946Z,121.80
2019-01-06T18:19:19.259Z,91.77
2019-01-06T18:22:21.247Z,69.37
2019-01-06T18:25:09.963Z,41.20
2019-01-06T18:28:07.302Z,38.63
2019-01-06T18:31:12.505Z,43.93
2019-01-06T18:34:01.014Z,46.07
2019-01-06T18:36:53.790Z,50.80
2019-01-06T18:39:42.689Z,51.27
2019-01-06T18:42:31.465Z,59.80
2019-01-06T18:45:30.205Z,55.27
2019-01-06T18:48:23.179Z,60.27
2019-01-06T18:51:11.964Z,51.73
2019-01-06T18:54:04.729Z,56.07
2019-01-06T18:57:03.877Z,45.60
2019-01-06T18:59:45.518Z,35.17
2019-01-06T19:02:34.305Z,32.63
2019-01-06T19:05:24.165Z,32.43
2019-01-06T19:08:14.010Z,29.50
2019-01-06T19:11:03.496Z,27.00
2019-01-06T19:13:59.685Z,26.73
2019-01-06T19:16:55.817Z,28.40
2019-01-06T19:19:51.860Z,25.90
2019-01-06T19:22:41.432Z,27.60
2019-01-06T19:25:29.832Z,32.20
2019-01-06T19:28:18.392Z,37.20
2019-01-06T19:31:08.241Z,35.63
2019-01-06T19:33:58.087Z,32.37
2019-01-06T19:36:51.027Z,29.43
2019-01-06T19:39:55.289Z,28.37
2019-01-06T19:42:45.145Z,27.33
2019-01-06T19:45:42.738Z,26.37
2019-01-06T19:48:31.393Z,25.70
2019-01-06T19:51:24.036Z,27.07
2019-01-06T19:54:13.970Z,30.50
2019-01-06T19:57:02.733Z,33.70
2019-01-06T20:00:01.387Z,34.77
2019-01-06T20:02:54.524Z,41.33
2019-01-06T20:05:44.380Z,43.23
2019-01-06T20:08:33.300Z,48.90
2019-01-06T20:11:21.954Z,55.77
2019-01-06T20:14:14.115Z,86.70
2019-01-06T20:17:04.105Z,90.70
2019-01-06T20:19:53.964Z,87.40
2019-01-06T20:22:42.633Z,80.43
2019-01-06T20:25:44.619Z,73.90
2019-01-06T20:28:33.304Z,48.30
2019-01-06T20:31:41.339Z,64.77
2019-01-06T20:34:31.369Z,59.03
2019-01-06T20:37:20.072Z,54.80
2019-01-06T20:40:08.665Z,53.73
2019-01-06T20:42:57.739Z,47.77
2019-01-06T20:45:54.930Z,44.77
2019-01-06T20:48:44.870Z,35.47
2019-01-06T20:51:33.878Z,31.67
2019-01-06T20:54:25.791Z,29.43
2019-01-06T20:57:28.013Z,26.57
2019-01-06T21:00:16.770Z,23.33
2019-01-06T21:03:10.271Z,22.23
2019-01-06T21:06:12.243Z,23.03
2019-01-06T21:09:01.477Z,27.67
2019-01-06T21:12:05.333Z,30.50
2019-01-06T21:14:53.726Z,34.50
2019-01-06T21:17:52.640Z,36.60
2019-01-06T21:20:52.163Z,33.27
2019-01-06T21:23:40.913Z,27.70
2019-01-06T21:26:29.418Z,23.53
2019-01-06T21:29:29.655Z,21.97
2019-01-06T21:32:11.755Z,20.00
2019-01-06T21:35:17.448Z,18.77
2019-01-06T21:38:12.012Z,17.63
2019-01-06T21:41:01.142Z,19.53
2019-01-06T21:43:57.389Z,18.70
2019-01-06T21:46:46.073Z,18.27
2019-01-06T21:49:36.095Z,18.30
2019-01-06T21:52:23.067Z,18.00
2019-01-06T21:55:12.406Z,17.57
2019-01-06T21:58:08.264Z,19.20
2019-01-06T22:00:56.851Z,18.23
2019-01-06T22:03:45.480Z,19.53
2019-01-06T22:06:47.600Z,19.53
2019-01-06T22:09:37.505Z,20.87
2019-01-06T22:12:30.190Z,20.33
2019-01-06T22:15:19.553Z,22.17
2019-01-06T22:18:18.590Z,23.97
2019-01-06T22:21:08.576Z,25.30
2019-01-06T22:24:01.729Z,26.17
2019-01-06T22:26:46.098Z,26.20
2019-01-06T22:29:34.794Z,25.60
2019-01-06T22:32:27.433Z,24.97
2019-01-06T22:35:20.142Z,22.80
2019-01-06T22:38:09.957Z,22.43
2019-01-06T22:40:58.694Z,21.93
2019-01-06T22:43:48.614Z,21.30
2019-01-06T22:46:42.629Z,23.03
2019-01-06T22:49:31.274Z,22.13
2019-01-06T22:52:37.049Z,21.67
2019-01-06T22:55:31.578Z,22.13
2019-01-06T22:58:20.095Z,21.63
2019-01-06T23:01:10.054Z,20.20
2019-01-06T23:04:02.847Z,20.47
2019-01-06T23:06:58.580Z,25.77
2019-01-06T23:09:54.243Z,26.73
2019-01-06T23:12:43.048Z,24.90
2019-01-06T23:15:32.887Z,24.83
2019-01-06T23:18:21.569Z,27.00
2019-01-06T23:21:11.421Z,27.20
2019-01-06T23:24:07.326Z,28.17
2019-01-06T23:27:03.066Z,28.43
2019-01-06T23:30:11.188Z,29.10
2019-01-06T23:33:07.102Z,27.43
2019-01-06T23:35:56.984Z,27.07
2019-01-06T23:38:45.789Z,28.90
2019-01-06T23:41:53.865Z,30.80
2019-01-06T23:44:56.061Z,32.23
2019-01-06T23:47:48.945Z,32.23
2019-01-06T23:50:38.810Z,31.23
2019-01-06T23:53:31.750Z,32.73
2019-01-06T23:56:27.421Z,28.83
2019-01-06T23:59:35.704Z,27.83
